Flight Track Log - Related Links

Times and Time Zones

All times are in EDT time to prevent confusion due to time zone crossing. See the AAL963 flight status page for this flight to view local times or setup timezone preferences in your user account.

Time Position Orientation Groundspeed Altitude Reporting Facility
EDT Latitude Longitude Course Direction KTS MPH feet Rate Location/Type
Fri 09:14:34 PM 32.8380 -97.0200 164° South 204 235 2,200  Level FlightAware ADS-B
Fri 09:15:06 PM 32.8050 -97.0100 166° South 234 269 2,700 1,158 Climbing FlightAware ADS-B
Fri 09:15:31 PM 32.7770 -97.0020 166° South 252 290 3,300 1,385 Climbing FlightAware ADS-B
Fri 09:15:45 PM 32.7610 -96.9970 165° South 266 306 3,600 2,045 Climbing FlightAware ADS-B
Fri 09:16:15 PM 32.7260 -96.9850 164° South 266 306 4,800 2,136 Climbing FlightAware ADS-B
Fri 09:16:44 PM 32.6920 -96.9710 161° South 272 313 5,700 2,077 Climbing FlightAware ADS-B
Fri 09:17:07 PM 32.6640 -96.9600 162° South 273 314 6,600 2,182 Climbing FlightAware ADS-B
Fri 09:17:39 PM 32.6250 -96.9450 162° South 277 319 7,700 2,237 Climbing FlightAware ADS-B
Fri 09:18:06 PM 32.5930 -96.9320 161° South 272 313 8,800 2,182 Climbing FlightAware ADS-B
Fri 09:18:34 PM 32.5590 -96.9190 162° South 275 316 9,700 1,971 Climbing FlightAware ADS-B
Fri 09:19:16 PM 32.5080 -96.9000 163° South 280 322 11,100 1,448 Climbing FlightAware ADS-B
Fri 09:20:01 PM 32.4470 -96.8770 162° South 316 364 11,800 621 Climbing FlightAware ADS-B
Fri 09:20:43 PM 32.4240 -96.8690 164° South 328 377 12,000 1,407 Climbing FlightAware ADS-B
Fri 09:21:22 PM 32.3270 -96.8320 162° South 351 404 13,700 2,325 Climbing FlightAware ADS-B
Fri 09:22:03 PM 32.2610 -96.8070 162° South 356 410 15,100 1,793 Climbing FlightAware ADS-B
Fri 09:22:49 PM 32.1890 -96.7790 162° South 369 425 16,300 1,636 Climbing FlightAware ADS-B
Fri 09:23:31 PM 32.1187 -96.7523 162° South 374 430 17,500 1,747 Climbing FlightAware ADS-B
Fri 09:24:08 PM 32.0565 -96.7286 162° South 379 436 18,600 1,701 Climbing FlightAware ADS-B
Fri 09:24:38 PM 32.0053 -96.7091 162° South 387 445 19,400 1,452 Climbing FlightAware ADS-B
Fri 09:25:10 PM 31.9517 -96.6888 162° South 396 456 20,100 1,258 Climbing FlightAware ADS-B
Fri 09:25:40 PM 31.8979 -96.6684 162° South 399 459 20,700 1,233 Climbing FlightAware ADS-B
Fri 09:26:23 PM 31.8198 -96.6373 161° South 412 474 21,600 1,301 Climbing FlightAware ADS-B
Fri 09:27:03 PM 31.7462 -96.6066 160° South 423 487 22,500 1,277 Climbing FlightAware ADS-B
Fri 09:27:57 PM 31.6450 -96.5653 160° South 433 498 23,600 1,227 Climbing FlightAware ADS-B
Fri 09:28:31 PM 31.5790 -96.5384 161° South 443 510 24,300 1,125 Climbing FlightAware ADS-B
Fri 09:29:33 PM 31.4566 -96.4901 162° South 453 521 25,400 1,109 Climbing FlightAware ADS-B
Fri 09:30:03 PM 31.3961 -96.4679 163° South 457 526 26,000 1,009 Climbing FlightAware ADS-B
Fri 09:31:20 PM 31.2451 -96.3899 150° Southeast 471 542 27,200 953 Climbing FlightAware ADS-B
Fri 09:31:50 PM 31.1893 -96.3521 150° Southeast 475 547 27,700 1,021 Climbing FlightAware ADS-B
Fri 09:32:07 PM 31.1574 -96.3255 144° Southeast 477 549 28,000 923 Climbing FlightAware ADS-B
Fri 09:32:16 PM 31.1430 -96.3103 138° Southeast 478 550 28,100 894 Climbing FlightAware ADS-B
Fri 09:32:54 PM 31.0909 -96.2344 127° Southeast 482 555 28,700 796 Climbing FlightAware ADS-B
Fri 09:33:54 PM 31.0117 -96.1070 126° Southeast 491 565 29,400 717 Climbing FlightAware ADS-B
Fri 09:34:26 PM 30.9685 -96.0376 126° Southeast 495 570 29,800 774 Climbing FlightAware ADS-B
Fri 09:35:58 PM 30.8435 -95.8385 126° Southeast 504 580 31,000 829 Climbing FlightAware ADS-B
Fri 09:36:29 PM 30.8014 -95.7715 126° Southeast 504 580 31,500 1,055 Climbing FlightAware ADS-B
Fri 09:37:29 PM 30.7182 -95.6397 126° Southeast 498 573 32,600 1,055 Climbing FlightAware ADS-B
Fri 09:38:00 PM 30.6774 -95.5750 126° Southeast 498 573 33,100 732 Climbing FlightAware ADS-B
Fri 09:39:32 PM 30.5512 -95.3758 126° Southeast 500 575 34,100 671 Climbing FlightAware ADS-B
Fri 09:40:32 PM 30.4687 -95.2462 126° Southeast 499 574 34,800 600 Climbing FlightAware ADS-B
Fri 09:41:02 PM 30.4274 -95.1814 126° Southeast 501 577 35,000 190 Climbing FlightAware ADS-B
Fri 09:41:35 PM 30.3827 -95.1114 126° Southeast 501 577 35,000  Level FlightAware ADS-B
Fri 09:42:05 PM 30.3413 -95.0467 127° Southeast 500 575 35,000  Level FlightAware ADS-B
Fri 09:42:36 PM 30.2985 -94.9800 127° Southeast 500 575 35,000  Level FlightAware ADS-B
Fri 09:43:36 PM 30.2150 -94.8501 127° Southeast 501 577 35,000  Level FlightAware ADS-B
Fri 09:44:37 PM 30.1307 -94.7195 127° Southeast 503 579 35,000  Level FlightAware ADS-B
Fri 09:46:08 PM 30.0041 -94.5239 127° Southeast 504 580 35,000  Level FlightAware ADS-B
Fri 09:47:09 PM 29.9185 -94.3923 127° Southeast 504 580 35,000  Level FlightAware ADS-B
Fri 09:47:40 PM 29.8754 -94.3262 127° Southeast 504 580 35,000  Level FlightAware ADS-B
Fri 09:48:10 PM 29.8329 -94.2611 127° Southeast 503 579 35,000  Level FlightAware ADS-B
Fri 09:49:34 PM 29.7158 -94.0824 127° Southeast 502 578 35,000  Level FlightAware ADS-B
Fri 09:49:49 PM 29.6938 -94.0527 130° Southeast 502 578 35,000  Level FlightAware ADS-B
Fri 09:50:09 PM 29.6612 -94.0147 135° Southeast 504 580 35,000  Level FlightAware ADS-B
Fri 09:51:10 PM 29.5470 -93.9172 144° Southeast 505 581 35,000  Level FlightAware ADS-B
Fri 09:52:15 PM 29.4234 -93.8138 144° Southeast 505 581 35,000  Level FlightAware ADS-B
Fri 09:52:47 PM 29.3640 -93.7634 144° Southeast 506 582 35,000  Level FlightAware ADS-B
Fri 09:53:17 PM 29.3067 -93.7145 143° Southeast 506 582 35,000  Level FlightAware ADS-B
Fri 09:53:48 PM 29.2490 -93.6653 143° Southeast 507 583 35,000  Level FlightAware ADS-B
Fri 09:54:19 PM 29.1915 -93.6162 143° Southeast 507 583 35,000  Level FlightAware ADS-B
Fri 09:54:50 PM 29.1331 -93.5666 143° Southeast 508 585 35,000  Level FlightAware ADS-B
Fri 09:55:20 PM 29.0758 -93.5180 143° Southeast 510 587 35,000  Level FlightAware ADS-B
Fri 09:55:50 PM 29.0183 -93.4693 143° Southeast 510 587 35,000  Level FlightAware ADS-B
Fri 09:56:21 PM 28.9608 -93.4209 144° Southeast 510 587 35,000  Level FlightAware ADS-B
Fri 09:56:52 PM 28.9016 -93.3712 144° Southeast 510 587 35,000  Level FlightAware ADS-B
Fri 09:57:48 PM 28.8158 -93.2975 144° Southeast 510 587 35,000  Level Houston Center
Fri 09:58:49 PM 28.7028 -93.2036 144° Southeast 505 581 35,000  Level Houston Center
Fri 09:59:50 PM 28.5889 -93.1075 143° Southeast 509 586 35,000 -49 Level Houston Center
Fri 10:00:51 PM 28.4511 -92.9933 144° Southeast 511 588 34,900  Descending Houston Center
Fri 10:01:52 PM 28.3361 -92.8978 144° Southeast 512 589 35,000 49 Climbing Houston Center
Fri 10:02:53 PM 28.2208 -92.8028 144° Southeast 512 589 35,000  Level Houston Center
Fri 10:03:54 PM 28.1067 -92.7061 143° Southeast 513 590 35,000  Level Houston Center
Fri 10:04:55 PM 27.9922 -92.6117 144° Southeast 511 588 35,000 -390 Level Houston Center
Fri 10:05:57 PM 27.8772 -92.5169 144° Southeast 511 588 34,200 -829 Descending Houston Center
Fri 10:06:58 PM 27.7614 -92.4253 145° Southeast 509 586 33,300 -590 Descending Houston Center
Fri 10:07:59 PM 27.6469 -92.3322 144° Southeast 507 583 33,000 -148 Descending Houston Center
Fri 10:09:00 PM 27.5339 -92.2392 144° Southeast 505 581 33,000  Level Houston Center
Fri 10:10:01 PM 27.4200 -92.1478 145° Southeast 503 579 33,000  Level Houston Center
Fri 10:11:02 PM 27.3069 -92.0561 144° Southeast 502 578 33,000  Level Houston Center
Fri 10:12:03 PM 27.1694 -91.9444 144° Southeast 506 582 33,000  Level Houston Center
Fri 10:14:00 PM 26.9644 -91.7712 144° Southeast  Level FlightAware Approximate
Fri 10:21:00 PM 26.2125 -91.1749 145° Southeast  Level FlightAware Approximate
Fri 10:22:00 PM 26.1049 -91.0903 145° Southeast  Level FlightAware Approximate
Fri 10:23:00 PM 25.9973 -91.0058 145° Southeast  Level FlightAware Approximate
Fri 10:24:00 PM 25.8897 -90.9215 145° Southeast  Level FlightAware Approximate
Fri 10:25:00 PM 25.7820 -90.8373 145° Southeast  Level FlightAware Approximate
Fri 10:26:00 PM 25.6742 -90.7533 145° Southeast  Level FlightAware Approximate
Fri 10:27:00 PM 25.5664 -90.6695 145° Southeast  Level FlightAware Approximate
Fri 10:28:00 PM 25.4585 -90.5858 145° Southeast  Level FlightAware Approximate
Fri 10:29:00 PM 25.3506 -90.5023 145° Southeast  Level FlightAware Approximate
Fri 10:30:00 PM 25.2427 -90.4189 145° Southeast  Level FlightAware Approximate
Fri 10:31:00 PM 25.1347 -90.3356 145° Southeast  Level FlightAware Approximate
Fri 10:32:00 PM 25.0266 -90.2525 145° Southeast  Level FlightAware Approximate
Fri 10:33:00 PM 24.9185 -90.1695 145° Southeast  Level FlightAware Approximate
Fri 10:34:00 PM 24.8104 -90.0867 145° Southeast  Level FlightAware Approximate
Fri 10:35:00 PM 24.7022 -90.0041 145° Southeast  Level FlightAware Approximate
Fri 10:36:00 PM 24.5940 -89.9215 145° Southeast  Level FlightAware Approximate
Fri 10:37:00 PM 24.4872 -89.8372 138° Southeast  Level FlightAware Approximate
Fri 10:37:37 PM 24.3130 -89.7100 138° Southeast 496 571 33,000  Level FlightAware ADS-B
Fri 10:38:19 PM 24.2600 -89.6690 145° Southeast 496 571 33,000  Level FlightAware ADS-B
Fri 10:39:06 PM 24.1630 -89.5970 146° Southeast 494 568 33,000  Level FlightAware ADS-B
Fri 10:39:43 PM 24.1040 -89.5510 145° Southeast 494 568 33,000  Level FlightAware ADS-B
Fri 10:40:28 PM 24.0050 -89.4780 146° Southeast 493 567 33,000  Level FlightAware ADS-B
Fri 10:41:08 PM 23.9260 -89.4180 145° Southeast 492 566 33,000  Level FlightAware ADS-B
Fri 10:41:49 PM 23.8490 -89.3490 141° Southeast 494 568 33,000  Level FlightAware ADS-B
Fri 10:42:37 PM 23.7650 -89.2710 140° Southeast 495 570 33,000  Level FlightAware ADS-B
Fri 10:43:10 PM 23.7070 -89.2170 140° Southeast 495 570 33,000  Level FlightAware ADS-B
Fri 10:43:59 PM 23.6220 -89.1370 139° Southeast 494 568 33,000  Level FlightAware ADS-B
Fri 10:44:37 PM 23.5550 -89.0750 140° Southeast 493 567 33,000  Level FlightAware ADS-B
Fri 10:45:45 PM 23.4370 -88.9650 139° Southeast 491 565 33,000  Level FlightAware ADS-B
Fri 10:46:25 PM 23.3650 -88.8980 139° Southeast 491 565 33,000  Level FlightAware ADS-B
Fri 10:47:06 PM 23.3100 -88.8470 140° Southeast 491 565 33,000  Level FlightAware ADS-B
Fri 10:47:49 PM 23.2380 -88.7800 139° Southeast 491 565 33,000  Level FlightAware ADS-B
Fri 10:48:25 PM 23.1610 -88.7090 140° Southeast 490 564 33,000  Level FlightAware ADS-B
Fri 10:49:09 PM 23.0900 -88.6430 139° Southeast 490 564 33,000  Level FlightAware ADS-B
Fri 10:49:50 PM 23.0220 -88.5800 140° Southeast 490 564 33,000 488 Level FlightAware ADS-B
Fri 10:50:35 PM 22.9430 -88.5080 140° Southeast 488 562 33,700 966 Climbing FlightAware ADS-B
Fri 10:51:17 PM 22.8720 -88.4430 140° Southeast 485 558 34,400 876 Climbing FlightAware ADS-B
Fri 10:52:04 PM 22.7890 -88.3660 139° Southeast 482 555 35,000 414 Climbing FlightAware ADS-B
Fri 10:52:44 PM 22.7210 -88.3040 140° Southeast 480 552 35,000  Level FlightAware ADS-B
Fri 10:53:25 PM 22.6510 -88.2400 140° Southeast 480 552 35,000  Level FlightAware ADS-B
Fri 10:54:05 PM 22.5830 -88.1770 139° Southeast 481 554 35,000  Level FlightAware ADS-B
Fri 10:54:46 PM 22.5140 -88.1140 140° Southeast 478 550 35,000  Level FlightAware ADS-B
Fri 10:55:40 PM 22.4330 -88.0400 140° Southeast 479 551 35,000  Level FlightAware ADS-B
Fri 10:56:23 PM 22.3490 -87.9640 140° Southeast 479 551 35,000  Level FlightAware ADS-B
Fri 10:57:04 PM 22.2770 -87.8990 140° Southeast 480 552 35,000  Level FlightAware ADS-B
Fri 10:57:48 PM 22.2010 -87.8290 140° Southeast 480 552 35,000  Level FlightAware ADS-B
Fri 10:58:29 PM 22.1390 -87.7730 140° Southeast 481 554 35,000  Level FlightAware ADS-B
Fri 10:59:09 PM 22.0660 -87.7070 140° Southeast 482 555 35,000  Level FlightAware ADS-B
Fri 10:59:58 PM 21.9810 -87.6300 140° Southeast 484 557 35,000  Level FlightAware ADS-B
Fri 11:00:39 PM 21.9110 -87.5670 140° Southeast 484 557 35,000  Level FlightAware ADS-B
Fri 11:01:19 PM 21.8420 -87.5050 140° Southeast 485 558 35,000  Level FlightAware ADS-B
Fri 11:02:00 PM 21.7730 -87.4430 140° Southeast 486 559 35,000  Level FlightAware ADS-B
Fri 11:02:45 PM 21.6520 -87.3340 140° Southeast 487 560 35,000  Level FlightAware ADS-B
Fri 11:03:29 PM 21.5770 -87.2670 140° Southeast 488 562 35,000  Level FlightAware ADS-B
Fri 11:04:10 PM 21.5040 -87.2020 140° Southeast 490 564 35,000  Level FlightAware ADS-B
Fri 11:04:50 PM 21.4330 -87.1380 140° Southeast 490 564 35,000  Level FlightAware ADS-B
Fri 11:05:34 PM 21.3570 -87.0700 140° Southeast 489 563 35,000  Level FlightAware ADS-B
Fri 11:06:16 PM 21.2830 -87.0040 140° Southeast 489 563 35,000  Level FlightAware ADS-B
Fri 11:07:00 PM 21.2070 -86.9360 140° Southeast 489 563 35,000  Level FlightAware ADS-B
Fri 11:07:42 PM 21.1350 -86.8720 140° Southeast 489 563 35,000  Level FlightAware ADS-B
Fri 11:08:20 PM 21.0670 -86.8120 141° Southeast 488 562 35,000  Level FlightAware ADS-B
Fri 11:09:06 PM 20.9880 -86.7420 140° Southeast 489 563 35,000  Level FlightAware ADS-B
Fri 11:09:46 PM 20.9190 -86.6800 140° Southeast 488 562 35,000  Level FlightAware ADS-B
Fri 11:10:24 PM 20.8510 -86.6200 140° Southeast 488 562 35,000  Level FlightAware ADS-B
Fri 11:11:44 PM 20.7200 -86.5040 140° Southeast 489 563 35,000  Level FlightAware ADS-B
Fri 11:12:24 PM 20.6430 -86.4360 140° Southeast 490 564 35,000  Level FlightAware ADS-B
Fri 11:13:02 PM 20.5760 -86.3770 140° Southeast 492 566 35,000  Level FlightAware ADS-B
Fri 11:14:35 PM 20.4320 -86.2490 140° Southeast 492 566 35,000  Level FlightAware ADS-B
Fri 11:14:58 PM 20.4270 -86.2460 151° Southeast 35,000  Level FlightAware ADS-B
Fri 11:16:38 PM 20.1950 -86.0430 141° Southeast 491 565 35,000  Level FlightAware ADS-B
Fri 11:17:22 PM 20.1200 -85.9770 140° Southeast 490 564 35,000  Level FlightAware ADS-B
Fri 11:18:03 PM 20.0490 -85.9150 141° Southeast 490 564 35,000  Level FlightAware ADS-B
Fri 11:18:42 PM 19.9800 -85.8530 140° Southeast 492 566 35,000  Level FlightAware ADS-B
Fri 11:19:28 PM 19.9010 -85.7770 138° Southeast 494 568 35,000  Level FlightAware ADS-B
Fri 11:20:10 PM 19.8300 -85.7100 138° Southeast 495 570 35,000  Level FlightAware ADS-B
Fri 11:20:52 PM 19.7570 -85.6410 138° Southeast 495 570 35,000  Level FlightAware ADS-B
Fri 11:21:34 PM 19.6870 -85.5760 139° Southeast 496 571 35,000  Level FlightAware ADS-B
Fri 11:22:07 PM 19.6390 -85.5300 138° Southeast 496 571 35,000  Level FlightAware ADS-B
Fri 11:22:52 PM 19.5620 -85.4570 138° Southeast 496 571 35,000  Level FlightAware ADS-B
Fri 11:23:38 PM 19.4740 -85.3760 139° Southeast 495 570 35,000  Level FlightAware ADS-B
Fri 11:24:20 PM 19.4000 -85.3070 139° Southeast 497 572 35,000  Level FlightAware ADS-B
Fri 11:25:02 PM 19.3290 -85.2400 138° Southeast 497 572 35,000  Level FlightAware ADS-B
Fri 11:25:46 PM 19.2620 -85.1770 138° Southeast 498 573 35,000  Level FlightAware ADS-B
Fri 11:26:22 PM 19.2090 -85.1270 138° Southeast 498 573 35,000  Level FlightAware ADS-B
Fri 11:27:11 PM 19.1380 -85.0590 138° Southeast 498 573 35,000  Level FlightAware ADS-B
Fri 11:27:48 PM 19.0840 -85.0080 138° Southeast 498 573 35,000  Level FlightAware ADS-B
Fri 11:28:36 PM 19.0140 -84.9410 138° Southeast 498 573 35,000  Level FlightAware ADS-B
Fri 11:29:12 PM 18.9620 -84.8910 138° Southeast 498 573 35,000  Level FlightAware ADS-B
Fri 11:29:51 PM 18.9050 -84.8370 138° Southeast 498 573 35,000  Level FlightAware ADS-B
Fri 11:30:40 PM 18.8340 -84.7690 138° Southeast 498 573 35,000  Level FlightAware ADS-B
Fri 11:31:17 PM 18.7800 -84.7180 138° Southeast 498 573 35,000  Level FlightAware ADS-B
Fri 11:32:06 PM 18.7090 -84.6500 138° Southeast 498 573 35,000  Level FlightAware ADS-B
Fri 11:32:43 PM 18.6550 -84.5990 138° Southeast 498 573 35,000  Level FlightAware ADS-B
Fri 11:33:19 PM 18.6020 -84.5490 138° Southeast 498 573 35,000  Level FlightAware ADS-B
Fri 11:34:06 PM 18.5340 -84.4840 138° Southeast 498 573 35,000  Level FlightAware ADS-B
Fri 11:34:54 PM 18.4640 -84.4180 138° Southeast 498 573 35,000 29 Level FlightAware ADS-B
Fri 11:37:00 PM 18.2602 -84.2184 137° Southeast  Level Estimated
Fri 11:38:00 PM 18.1631 -84.1236 137° Southeast  Level Estimated
Fri 11:39:00 PM 18.0660 -84.0288 137° Southeast  Level Estimated
Fri 11:40:00 PM 17.9688 -83.9341 137° Southeast  Level Estimated
Fri 11:41:00 PM 17.8715 -83.8396 137° Southeast  Level Estimated
Fri 11:42:00 PM 17.7742 -83.7451 137° Southeast  Level Estimated
Fri 11:43:00 PM 17.6769 -83.6508 137° Southeast  Level Estimated
Fri 11:44:00 PM 17.5795 -83.5565 137° Southeast  Level Estimated
Fri 11:45:00 PM 17.4821 -83.4624 137° Southeast  Level Estimated
Fri 11:46:00 PM 17.3846 -83.3683 137° Southeast  Level Estimated
Fri 11:47:00 PM 17.2871 -83.2744 137° Southeast  Level Estimated
Fri 11:48:00 PM 17.1895 -83.1805 137° Southeast  Level Estimated
Fri 11:49:00 PM 17.0919 -83.0868 137° Southeast  Level Estimated
Fri 11:50:00 PM 16.9943 -82.9931 137° Southeast  Level Estimated
Fri 11:51:00 PM 16.8966 -82.8996 137° Southeast  Level Estimated
Fri 11:52:00 PM 16.7989 -82.8061 138° Southeast  Level Estimated
Fri 11:53:00 PM 16.7011 -82.7127 138° Southeast  Level Estimated
Fri 11:54:00 PM 16.6033 -82.6195 138° Southeast  Level Estimated
Fri 11:55:00 PM 16.5054 -82.5263 138° Southeast  Level Estimated
Fri 11:56:00 PM 16.4075 -82.4332 138° Southeast  Level Estimated
Fri 11:57:00 PM 16.3096 -82.3403 138° Southeast  Level Estimated
Fri 11:58:00 PM 16.2116 -82.2474 138° Southeast  Level Estimated
Fri 11:59:00 PM 16.1136 -82.1546 138° Southeast  Level Estimated
Sat 12:00:00 AM 16.0155 -82.0619 138° Southeast  Level Estimated
Sat 12:01:00 AM 15.9174 -81.9693 138° Southeast  Level Estimated
Sat 12:02:00 AM 15.8193 -81.8767 138° Southeast  Level Estimated
Sat 12:03:00 AM 15.7211 -81.7843 138° Southeast  Level Estimated
Sat 12:04:00 AM 15.6229 -81.6920 138° Southeast  Level Estimated
Sat 12:05:00 AM 15.5246 -81.5997 138° Southeast  Level Estimated
Sat 12:06:00 AM 15.4264 -81.5075 138° Southeast  Level Estimated
Sat 12:07:00 AM 15.3280 -81.4155 138° Southeast  Level Estimated
Sat 12:08:00 AM 15.2297 -81.3235 138° Southeast  Level Estimated
Sat 12:09:00 AM 15.1313 -81.2316 138° Southeast  Level Estimated
Sat 12:10:00 AM 15.0328 -81.1397 138° Southeast  Level Estimated
Sat 12:11:00 AM 14.9343 -81.0480 138° Southeast  Level Estimated
Sat 12:12:00 AM 14.8358 -80.9564 138° Southeast  Level Estimated
Sat 12:13:00 AM 14.7373 -80.8648 138° Southeast  Level Estimated
Sat 12:14:00 AM 14.6387 -80.7733 138° Southeast  Level Estimated
Sat 12:15:00 AM 14.5400 -80.6819 138° Southeast  Level Estimated
Sat 12:16:00 AM 14.4414 -80.5906 138° Southeast  Level Estimated
Sat 12:17:00 AM 14.3427 -80.4993 138° Southeast  Level Estimated
Sat 12:18:00 AM 14.2440 -80.4082 138° Southeast  Level Estimated
Sat 12:19:00 AM 14.1452 -80.3171 138° Southeast  Level Estimated
Sat 12:20:00 AM 14.0464 -80.2261 138° Southeast  Level Estimated
Sat 12:21:00 AM 13.9476 -80.1352 138° Southeast  Level Estimated
Sat 12:22:00 AM 13.8487 -80.0443 138° Southeast  Level Estimated
Sat 12:23:00 AM 13.7498 -79.9536 138° Southeast  Level Estimated
Sat 12:24:00 AM 13.6509 -79.8629 138° Southeast  Level Estimated
Sat 12:25:00 AM 13.5519 -79.7722 138° Southeast  Level Estimated
Sat 12:26:00 AM 13.4529 -79.6817 138° Southeast  Level Estimated
Sat 12:27:00 AM 13.3539 -79.5912 138° Southeast  Level Estimated
Sat 12:28:00 AM 13.2548 -79.5008 138° Southeast  Level Estimated
Sat 12:29:00 AM 13.1557 -79.4105 138° Southeast  Level Estimated
Sat 12:30:00 AM 13.0566 -79.3203 138° Southeast  Level Estimated
Sat 12:31:00 AM 12.9574 -79.2301 138° Southeast  Level Estimated
Sat 12:32:00 AM 12.8582 -79.1400 138° Southeast  Level Estimated
Sat 12:33:00 AM 12.7590 -79.0500 138° Southeast  Level Estimated
Sat 12:34:00 AM 12.6598 -78.9600 139° Southeast  Level Estimated
Sat 12:35:00 AM 12.5605 -78.8701 139° Southeast  Level Estimated
Sat 12:36:00 AM 12.4612 -78.7803 139° Southeast  Level Estimated
Sat 12:37:00 AM 12.3618 -78.6906 139° Southeast  Level Estimated
Sat 12:38:00 AM 12.2625 -78.6009 139° Southeast  Level Estimated
Sat 12:39:00 AM 12.1631 -78.5113 139° Southeast  Level Estimated
Sat 12:40:00 AM 12.0637 -78.4217 139° Southeast  Level Estimated
Sat 12:41:00 AM 11.9642 -78.3322 139° Southeast  Level Estimated
Sat 12:42:00 AM 11.8647 -78.2428 139° Southeast  Level Estimated
Sat 12:42:59 AM 11.5460 -77.8800 139° Southeast 467 537 37,000  Level FlightAware ADS-B
Sat 12:43:00 AM 11.7652 -78.1535 139° Southeast  Level Estimated
Sat 12:43:39 AM 11.4640 -77.8520 161° South 461 531 37,000  Level FlightAware ADS-B
Sat 12:44:24 AM 11.3650 -77.8380 172° South 467 537 37,000  Level FlightAware ADS-B
Sat 12:45:04 AM 11.2790 -77.8260 172° South 458 527 37,000  Level FlightAware ADS-B
Sat 12:46:15 AM 11.1330 -77.8050 172° South 456 525 37,000  Level FlightAware ADS-B
Sat 12:47:15 AM 11.0100 -77.7860 171° South 456 525 37,000  Level FlightAware ADS-B
Sat 12:47:52 AM 10.9440 -77.7750 171° South 456 525 37,000  Level FlightAware ADS-B
Sat 12:48:45 AM 10.8260 -77.7560 171° South 457 526 37,000  Level FlightAware ADS-B
Sat 12:49:30 AM 10.7150 -77.7400 172° South 456 525 37,000  Level FlightAware ADS-B
Sat 12:50:11 AM 10.6270 -77.7260 171° South 455 524 37,000  Level FlightAware ADS-B
Sat 12:50:56 AM 10.5360 -77.7110 171° South 455 524 37,000  Level FlightAware ADS-B
Sat 12:51:30 AM 10.4560 -77.7010 173° South 454 522 37,000  Level FlightAware ADS-B
Sat 12:52:16 AM 10.3640 -77.6910 174° South 449 517 37,000  Level FlightAware ADS-B
Sat 12:53:00 AM 10.2700 -77.6810 174° South 449 517 37,000  Level FlightAware ADS-B
Sat 12:53:41 AM 10.1810 -77.6710 174° South 450 518 37,000  Level FlightAware ADS-B
Sat 12:54:22 AM 10.1020 -77.6620 174° South 449 517 37,000  Level FlightAware ADS-B
Sat 12:55:02 AM 10.0180 -77.6530 174° South 449 517 37,000  Level FlightAware ADS-B
Sat 12:55:48 AM 9.9180 -77.6390 172° South 446 513 37,000  Level FlightAware ADS-B
Sat 12:56:33 AM 9.8320 -77.6020 157° South 439 505 37,000  Level FlightAware ADS-B
Sat 12:57:13 AM 9.7660 -77.5510 143° Southeast 441 507 37,000  Level FlightAware ADS-B
Sat 12:57:54 AM 9.7050 -77.4930 137° Southeast 442 509 37,000  Level FlightAware ADS-B
Sat 12:58:39 AM 9.6480 -77.4180 128° Southeast 447 514 37,000  Level FlightAware ADS-B
Sat 12:59:19 AM 9.6060 -77.3550 124° Southeast 447 514 37,000  Level FlightAware ADS-B
Sat 01:00:16 AM 9.5460 -77.2590 122° Southeast 449 517 37,000  Level FlightAware ADS-B
Sat 01:00:59 AM 9.4900 -77.1710 123° Southeast 450 518 37,000  Level FlightAware ADS-B
Sat 01:01:56 AM 9.4330 -77.0780 122° Southeast 450 518 37,000  Level FlightAware ADS-B
Sat 01:02:32 AM 9.3990 -77.0240 123° Southeast 450 518 37,000  Level FlightAware ADS-B
Sat 01:03:21 AM 9.3530 -76.9490 122° Southeast 450 518 37,000  Level FlightAware ADS-B
Sat 01:04:01 AM 9.3160 -76.8880 122° Southeast 450 518 37,000  Level FlightAware ADS-B
Sat 01:04:37 AM 9.2820 -76.8340 123° Southeast 450 518 37,000  Level FlightAware ADS-B
Sat 01:05:26 AM 9.2360 -76.7590 122° Southeast 450 518 37,000  Level FlightAware ADS-B
Sat 01:06:02 AM 9.2020 -76.7040 122° Southeast 450 518 37,000  Level FlightAware ADS-B
Sat 01:08:00 AM 9.0073 -76.5287 138° Southeast  Level Estimated
Sat 01:09:00 AM 8.9083 -76.4396 138° Southeast  Level Estimated
Sat 01:10:00 AM 8.8092 -76.3505 138° Southeast  Level Estimated
Sat 01:11:00 AM 8.7101 -76.2615 138° Southeast  Level Estimated
Sat 01:12:00 AM 8.6110 -76.1726 138° Southeast  Level Estimated
Sat 01:13:00 AM 8.5119 -76.0837 138° Southeast  Level Estimated
Sat 01:14:00 AM 8.4128 -75.9949 138° Southeast  Level Estimated
Sat 01:15:00 AM 8.3136 -75.9061 138° Southeast  Level Estimated
Sat 01:16:00 AM 8.2144 -75.8173 138° Southeast  Level Estimated
Sat 01:17:00 AM 8.1152 -75.7286 138° Southeast  Level Estimated
Sat 01:18:00 AM 8.0160 -75.6399 138° Southeast  Level Estimated
Sat 01:19:00 AM 7.9168 -75.5513 139° Southeast  Level Estimated
Sat 01:20:00 AM 7.8176 -75.4627 139° Southeast  Level Estimated
Sat 01:21:00 AM 7.7183 -75.3741 139° Southeast  Level Estimated
Sat 01:22:00 AM 7.6190 -75.2856 139° Southeast  Level Estimated
Sat 01:23:00 AM 7.5197 -75.1972 139° Southeast  Level Estimated
Sat 01:24:00 AM 7.4204 -75.1088 139° Southeast  Level Estimated
Sat 01:25:00 AM 7.3210 -75.0204 139° Southeast  Level Estimated
Sat 01:26:00 AM 7.2217 -74.9320 139° Southeast  Level Estimated
Sat 01:27:00 AM 7.1223 -74.8437 139° Southeast  Level Estimated
Sat 01:28:00 AM 7.0229 -74.7555 139° Southeast  Level Estimated
Sat 01:29:00 AM 6.9235 -74.6673 139° Southeast  Level Estimated
Sat 01:30:00 AM 6.8240 -74.5791 139° Southeast  Level Estimated
Sat 01:31:00 AM 6.7246 -74.4909 139° Southeast  Level Estimated
Sat 01:32:00 AM 6.6252 -74.4028 139° Southeast  Level Estimated
Sat 01:33:00 AM 6.5257 -74.3147 139° Southeast  Level Estimated
Sat 01:34:00 AM 6.4262 -74.2267 139° Southeast  Level Estimated
Sat 01:35:00 AM 6.3267 -74.1386 139° Southeast  Level Estimated
Sat 01:35:43 AM 5.6440 -74.9930 139° Southeast 486 559 37,000  Level FlightAware ADS-B
Sat 01:36:25 AM 5.5530 -74.9610 161° South 486 559 37,000  Level FlightAware ADS-B
Sat 01:37:08 AM 5.4620 -74.9300 161° South 485 558 37,000  Level FlightAware ADS-B
Sat 01:37:52 AM 5.3680 -74.8980 161° South 482 555 37,000  Level FlightAware ADS-B
Sat 01:38:33 AM 5.2930 -74.8480 146° Southeast 478 550 37,000  Level FlightAware ADS-B
Sat 01:39:14 AM 5.2320 -74.7790 132° Southeast 477 549 37,000  Level FlightAware ADS-B
Sat 01:39:58 AM 5.1680 -74.7050 131° Southeast 478 550 37,000  Level FlightAware ADS-B
Sat 01:40:34 AM 5.1170 -74.6460 131° Southeast 479 551 37,000  Level FlightAware ADS-B
Sat 01:41:04 AM 5.0720 -74.5940 131° Southeast 481 554 37,000  Level FlightAware ADS-B
Sat 01:41:50 AM 5.0040 -74.5170 132° Southeast 481 554 37,000  Level FlightAware ADS-B
Sat 01:42:30 AM 4.9460 -74.4500 131° Southeast 482 555 37,000  Level FlightAware ADS-B
Sat 01:43:14 AM 4.8800 -74.3750 131° Southeast 482 555 37,000  Level FlightAware ADS-B
Sat 01:43:54 AM 4.8230 -74.3090 131° Southeast 484 557 37,000  Level FlightAware ADS-B
Sat 01:44:38 AM 4.7580 -74.2350 131° Southeast 484 557 37,000  Level FlightAware ADS-B
Sat 01:45:16 AM 4.7010 -74.1690 131° Southeast 484 557 37,000  Level FlightAware ADS-B
Sat 01:46:00 AM 4.6360 -74.0950 131° Southeast 484 557 37,000  Level FlightAware ADS-B
Sat 01:46:41 AM 4.5780 -74.0290 131° Southeast 484 557 37,000  Level FlightAware ADS-B
Sat 01:47:26 AM 4.5100 -73.9510 131° Southeast 484 557 37,000  Level FlightAware ADS-B
Sat 01:48:06 AM 4.4510 -73.8820 131° Southeast 484 557 37,000  Level FlightAware ADS-B
Sat 01:48:50 AM 4.3850 -73.8070 131° Southeast 484 557 37,000  Level FlightAware ADS-B
Sat 01:49:26 AM 4.3320 -73.7470 132° Southeast 484 557 37,000  Level FlightAware ADS-B
Sat 01:50:06 AM 4.2730 -73.6790 131° Southeast 484 557 37,000  Level FlightAware ADS-B
Sat 01:50:54 AM 4.2030 -73.5990 131° Southeast 484 557 37,000  Level FlightAware ADS-B
Sat 01:51:38 AM 4.1370 -73.5230 131° Southeast 485 558 37,000  Level FlightAware ADS-B
Sat 01:52:19 AM 4.0780 -73.4560 131° Southeast 484 557 37,000  Level FlightAware ADS-B
Sat 01:53:02 AM 4.0140 -73.3830 131° Southeast 484 557 37,000  Level FlightAware ADS-B
Sat 01:53:42 AM 3.9540 -73.3140 131° Southeast 482 555 37,000  Level FlightAware ADS-B
Sat 01:54:26 AM 3.8900 -73.2410 131° Southeast 482 555 37,000  Level FlightAware ADS-B
Sat 01:55:08 AM 3.8270 -73.1700 132° Southeast 482 555 37,000  Level FlightAware ADS-B
Sat 01:55:51 AM 3.7740 -73.1080 131° Southeast 482 555 37,000  Level FlightAware ADS-B
Sat 01:56:26 AM 3.7300 -73.0580 131° Southeast 482 555 37,000  Level FlightAware ADS-B
Sat 01:57:10 AM 3.6760 -72.9950 131° Southeast 482 555 37,000  Level FlightAware ADS-B
Sat 01:57:58 AM 3.6160 -72.9260 131° Southeast 482 555 37,000  Level FlightAware ADS-B
Sat 01:58:34 AM 3.5710 -72.8750 131° Southeast 482 555 37,000  Level FlightAware ADS-B
Sat 01:59:11 AM 3.5250 -72.8220 131° Southeast 482 555 37,000  Level FlightAware ADS-B
Sat 02:00:00 AM 3.4640 -72.7510 131° Southeast 482 555 37,000  Level FlightAware ADS-B
Sat 02:00:45 AM 3.4080 -72.6870 131° Southeast 482 555 37,000  Level FlightAware ADS-B
Sat 02:01:21 AM 3.3640 -72.6350 130° Southeast 482 555 37,000  Level FlightAware ADS-B
Sat 02:02:09 AM 3.3040 -72.5670 131° Southeast 482 555 37,000  Level FlightAware ADS-B
Sat 02:02:46 AM 3.2580 -72.5130 130° Southeast 482 555 37,000  Level FlightAware ADS-B
Sat 02:03:34 AM 3.1980 -72.4450 131° Southeast 482 555 37,000  Level FlightAware ADS-B
Sat 02:04:09 AM 3.1550 -72.3950 131° Southeast 482 555 37,000  Level FlightAware ADS-B
Sat 02:04:58 AM 3.0940 -72.3240 131° Southeast 482 555 37,000 Level FlightAware ADS-B
Sat 02:07:00 AM 2.8961 -72.1445 138° Southeast  Level Estimated
Sat 02:08:00 AM 2.7988 -72.0562 138° Southeast  Level Estimated
Sat 02:09:00 AM 2.7014 -71.9680 138° Southeast  Level Estimated
Sat 02:10:00 AM 2.6041 -71.8798 138° Southeast  Level Estimated
Sat 02:11:00 AM 2.5067 -71.7916 138° Southeast  Level Estimated
Sat 02:12:00 AM 2.4094 -71.7034 138° Southeast  Level Estimated
Sat 02:13:00 AM 2.3120 -71.6152 138° Southeast  Level Estimated
Sat 02:14:00 AM 2.2146 -71.5270 138° Southeast  Level Estimated
Sat 02:15:00 AM 2.1173 -71.4388 138° Southeast  Level Estimated
Sat 02:16:00 AM 2.0199 -71.3507 138° Southeast  Level Estimated
Sat 02:17:00 AM 1.9225 -71.2625 138° Southeast  Level Estimated
Sat 02:18:00 AM 1.8251 -71.1744 138° Southeast  Level Estimated
Sat 02:19:00 AM 1.7277 -71.0863 138° Southeast  Level Estimated
Sat 02:20:00 AM 1.6303 -70.9982 138° Southeast  Level Estimated
Sat 02:21:00 AM 1.5329 -70.9101 138° Southeast  Level Estimated
Sat 02:22:00 AM 1.4355 -70.8220 138° Southeast  Level Estimated
Sat 02:23:00 AM 1.3381 -70.7339 138° Southeast  Level Estimated
Sat 02:24:00 AM 1.2407 -70.6458 138° Southeast  Level Estimated
Sat 02:25:00 AM 1.1433 -70.5577 138° Southeast  Level Estimated
Sat 02:26:00 AM 1.0459 -70.4697 138° Southeast  Level Estimated
Sat 02:27:00 AM 0.9484 -70.3816 138° Southeast  Level Estimated
Sat 02:28:00 AM 0.8510 -70.2935 138° Southeast  Level Estimated
Sat 02:29:00 AM 0.7536 -70.2055 138° Southeast  Level Estimated
Sat 02:30:00 AM 0.6562 -70.1174 138° Southeast  Level Estimated
Sat 02:31:00 AM 0.5587 -70.0294 138° Southeast  Level Estimated
Sat 02:32:00 AM 0.4613 -69.9413 138° Southeast  Level Estimated
Sat 02:33:00 AM 0.3639 -69.8533 138° Southeast  Level Estimated
Sat 02:34:00 AM 0.2664 -69.7653 138° Southeast  Level Estimated
Sat 02:35:00 AM 0.1690 -69.6772 138° Southeast  Level Estimated
Sat 02:36:00 AM 0.0716 -69.5892 138° Southeast  Level Estimated
Sat 02:37:00 AM -0.0258 -69.5011 138° Southeast  Level Estimated
Sat 02:38:00 AM -0.1233 -69.4131 138° Southeast  Level Estimated
Sat 02:39:00 AM -0.2207 -69.3251 138° Southeast  Level Estimated
Sat 02:40:00 AM -0.3181 -69.2370 138° Southeast  Level Estimated
Sat 02:41:00 AM -0.4156 -69.1490 138° Southeast  Level Estimated
Sat 02:42:00 AM -0.5130 -69.0609 138° Southeast  Level Estimated
Sat 02:43:00 AM -0.6104 -68.9729 138° Southeast  Level Estimated
Sat 02:44:00 AM -0.7079 -68.8848 138° Southeast  Level Estimated
Sat 02:45:00 AM -0.8053 -68.7968 138° Southeast  Level Estimated
Sat 02:46:00 AM -0.9027 -68.7087 138° Southeast  Level Estimated
Sat 02:47:00 AM -1.0001 -68.6207 138° Southeast  Level Estimated
Sat 02:48:00 AM -1.0976 -68.5326 138° Southeast  Level Estimated
Sat 02:49:00 AM -1.1950 -68.4445 138° Southeast  Level Estimated
Sat 02:50:00 AM -1.2924 -68.3564 138° Southeast  Level Estimated
Sat 02:51:00 AM -1.3898 -68.2683 138° Southeast  Level Estimated
Sat 02:52:00 AM -1.4872 -68.1803 138° Southeast  Level Estimated
Sat 02:53:00 AM -1.5846 -68.0922 138° Southeast  Level Estimated
Sat 02:54:00 AM -1.6820 -68.0041 138° Southeast  Level Estimated
Sat 02:55:00 AM -1.7794 -67.9159 138° Southeast  Level Estimated
Sat 02:56:00 AM -1.8768 -67.8278 138° Southeast  Level Estimated
Sat 02:57:00 AM -1.9742 -67.7397 138° Southeast  Level Estimated
Sat 02:58:00 AM -2.0716 -67.6515 138° Southeast  Level Estimated
Sat 02:59:00 AM -2.1689 -67.5633 138° Southeast  Level Estimated
Sat 03:00:00 AM -2.2663 -67.4752 138° Southeast  Level Estimated
Sat 03:01:00 AM -2.3637 -67.3870 138° Southeast  Level Estimated
Sat 03:02:00 AM -2.4610 -67.2988 138° Southeast  Level Estimated
Sat 03:03:00 AM -2.5584 -67.2106 138° Southeast  Level Estimated
Sat 03:04:00 AM -2.6558 -67.1224 138° Southeast  Level Estimated
Sat 03:05:00 AM -2.7531 -67.0341 138° Southeast  Level Estimated
Sat 03:06:00 AM -2.8504 -66.9459 138° Southeast  Level Estimated
Sat 03:07:00 AM -2.9478 -66.8576 138° Southeast  Level Estimated
Sat 03:08:00 AM -3.0451 -66.7694 138° Southeast  Level Estimated
Sat 03:09:00 AM -3.1424 -66.6811 138° Southeast  Level Estimated
Sat 03:10:00 AM -3.2397 -66.5928 138° Southeast  Level Estimated
Sat 03:11:00 AM -3.3370 -66.5044 138° Southeast  Level Estimated
Sat 03:12:00 AM -3.4343 -66.4161 138° Southeast  Level Estimated
Sat 03:13:00 AM -3.5316 -66.3277 138° Southeast  Level Estimated
Sat 03:14:00 AM -3.6289 -66.2393 138° Southeast  Level Estimated
Sat 03:15:00 AM -3.7261 -66.1509 138° Southeast  Level Estimated
Sat 03:16:00 AM -3.8234 -66.0625 138° Southeast  Level Estimated
Sat 03:17:00 AM -3.9206 -65.9741 138° Southeast  Level Estimated
Sat 03:18:00 AM -4.0179 -65.8856 138° Southeast  Level Estimated
Sat 03:19:00 AM -4.1149 -65.7973 138° Southeast  Level Estimated
Sat 03:20:00 AM -4.2120 -65.7089 138° Southeast  Level Estimated
Sat 03:21:00 AM -4.3090 -65.6206 138° Southeast  Level Estimated
Sat 03:22:00 AM -4.4061 -65.5322 138° Southeast  Level Estimated
Sat 03:23:00 AM -4.5031 -65.4437 138° Southeast  Level Estimated
Sat 03:24:00 AM -4.6001 -65.3553 138° Southeast  Level Estimated
Sat 03:25:00 AM -4.6971 -65.2669 138° Southeast  Level Estimated
Sat 03:26:00 AM -4.7941 -65.1784 138° Southeast  Level Estimated
Sat 03:27:00 AM -4.8911 -65.0899 138° Southeast  Level Estimated
Sat 03:28:00 AM -4.9880 -65.0013 138° Southeast  Level Estimated
Sat 03:29:00 AM -5.0850 -64.9127 138° Southeast  Level Estimated
Sat 03:30:00 AM -5.1819 -64.8242 138° Southeast  Level Estimated
Sat 03:31:00 AM -5.2788 -64.7355 138° Southeast  Level Estimated
Sat 03:32:00 AM -5.3758 -64.6469 138° Southeast  Level Estimated
Sat 03:33:00 AM -5.4727 -64.5582 138° Southeast  Level Estimated
Sat 03:34:00 AM -5.5696 -64.4695 138° Southeast  Level Estimated
Sat 03:35:00 AM -5.6664 -64.3808 138° Southeast  Level Estimated
Sat 03:36:00 AM -5.7633 -64.2920 138° Southeast  Level Estimated
Sat 03:37:00 AM -5.8601 -64.2032 138° Southeast  Level Estimated
Sat 03:38:00 AM -5.9570 -64.1144 138° Southeast  Level Estimated
Sat 03:39:00 AM -6.0538 -64.0255 138° Southeast  Level Estimated
Sat 03:40:00 AM -6.1506 -63.9366 138° Southeast  Level Estimated
Sat 03:41:00 AM -6.2474 -63.8477 138° Southeast  Level Estimated
Sat 03:42:00 AM -6.3442 -63.7588 138° Southeast  Level Estimated
Sat 03:43:00 AM -6.4409 -63.6698 138° Southeast  Level Estimated
Sat 03:44:00 AM -6.5377 -63.5808 138° Southeast  Level Estimated
Sat 03:45:00 AM -6.6344 -63.4917 138° Southeast  Level Estimated
Sat 03:46:00 AM -6.7311 -63.4026 138° Southeast  Level Estimated
Sat 03:47:00 AM -6.8277 -63.3137 138° Southeast  Level Estimated
Sat 03:48:00 AM -6.9242 -63.2247 138° Southeast  Level Estimated
Sat 03:49:00 AM -7.0207 -63.1356 138° Southeast  Level Estimated
Sat 03:50:00 AM -7.1171 -63.0465 138° Southeast  Level Estimated
Sat 03:51:00 AM -7.2136 -62.9574 137° Southeast  Level Estimated
Sat 03:52:00 AM -7.3100 -62.8683 137° Southeast  Level Estimated
Sat 03:53:00 AM -7.4065 -62.7791 137° Southeast  Level Estimated
Sat 03:54:00 AM -7.5029 -62.6898 137° Southeast  Level Estimated
Sat 03:55:00 AM -7.5993 -62.6006 137° Southeast  Level Estimated
Sat 03:56:00 AM -7.6956 -62.5113 137° Southeast  Level Estimated
Sat 03:57:00 AM -7.7920 -62.4219 137° Southeast  Level Estimated
Sat 03:58:00 AM -7.8883 -62.3325 137° Southeast  Level Estimated
Sat 03:59:00 AM -7.9847 -62.2431 137° Southeast  Level Estimated
Sat 04:00:00 AM -8.0809 -62.1536 137° Southeast  Level Estimated
Sat 04:01:00 AM -8.1774 -62.0639 137° Southeast  Level Estimated
Sat 04:02:00 AM -8.2738 -61.9742 137° Southeast  Level Estimated
Sat 04:03:00 AM -8.3702 -61.8845 137° Southeast  Level Estimated
Sat 04:04:00 AM -8.4666 -61.7947 137° Southeast  Level Estimated
Sat 04:05:00 AM -8.5630 -61.7048 137° Southeast  Level Estimated
Sat 04:06:00 AM -8.6594 -61.6149 137° Southeast  Level Estimated
Sat 04:07:00 AM -8.7557 -61.5250 137° Southeast  Level Estimated
Sat 04:08:00 AM -8.8520 -61.4350 137° Southeast  Level Estimated
Sat 04:09:00 AM -8.9483 -61.3449 137° Southeast  Level Estimated
Sat 04:10:00 AM -9.0445 -61.2548 137° Southeast  Level Estimated
Sat 04:11:00 AM -9.1408 -61.1647 137° Southeast  Level Estimated
Sat 04:12:00 AM -9.2370 -61.0745 137° Southeast  Level Estimated
Sat 04:13:00 AM -9.3332 -60.9843 137° Southeast  Level Estimated
Sat 04:14:00 AM -9.4293 -60.8940 137° Southeast  Level Estimated
Sat 04:15:00 AM -9.5255 -60.8037 137° Southeast  Level Estimated
Sat 04:16:00 AM -9.6216 -60.7133 137° Southeast  Level Estimated
Sat 04:17:00 AM -9.7177 -60.6229 137° Southeast  Level Estimated
Sat 04:18:00 AM -9.8138 -60.5324 137° Southeast  Level Estimated
Sat 04:19:00 AM -9.9098 -60.4418 137° Southeast  Level Estimated
Sat 04:20:00 AM -10.0059 -60.3513 137° Southeast  Level Estimated
Sat 04:21:00 AM -10.1019 -60.2606 137° Southeast  Level Estimated
Sat 04:22:00 AM -10.1979 -60.1699 137° Southeast  Level Estimated
Sat 04:23:00 AM -10.2940 -60.0790 137° Southeast  Level Estimated
Sat 04:24:00 AM -10.3901 -59.9880 137° Southeast  Level Estimated
Sat 04:25:00 AM -10.4861 -59.8970 137° Southeast  Level Estimated
Sat 04:26:00 AM -10.5822 -59.8059 137° Southeast  Level Estimated
Sat 04:27:00 AM -10.6782 -59.7148 137° Southeast  Level Estimated
Sat 04:28:00 AM -10.7742 -59.6236 137° Southeast  Level Estimated
Sat 04:29:00 AM -10.8702 -59.5323 137° Southeast  Level Estimated
Sat 04:30:00 AM -10.9661 -59.4410 137° Southeast  Level Estimated
Sat 04:31:00 AM -11.0620 -59.3496 137° Southeast  Level Estimated
Sat 04:32:00 AM -11.1579 -59.2582 137° Southeast  Level Estimated
Sat 04:33:00 AM -11.2538 -59.1667 137° Southeast  Level Estimated
Sat 04:34:00 AM -11.3494 -59.0753 137° Southeast  Level Estimated
Sat 04:35:00 AM -11.4451 -58.9839 137° Southeast  Level Estimated
Sat 04:36:00 AM -11.5407 -58.8924 137° Southeast  Level Estimated
Sat 04:37:00 AM -11.6362 -58.8008 137° Southeast  Level Estimated
Sat 04:38:00 AM -11.7318 -58.7091 137° Southeast  Level Estimated
Sat 04:39:00 AM -11.8273 -58.6174 137° Southeast  Level Estimated
Sat 04:40:00 AM -11.9228 -58.5257 137° Southeast  Level Estimated
Sat 04:41:00 AM -12.0183 -58.4338 137° Southeast  Level Estimated
Sat 04:42:00 AM -12.1137 -58.3419 137° Southeast  Level Estimated
Sat 04:43:00 AM -12.2091 -58.2500 137° Southeast  Level Estimated
Sat 04:44:00 AM -12.3045 -58.1579 137° Southeast  Level Estimated
Sat 04:45:00 AM -12.3998 -58.0658 137° Southeast  Level Estimated
Sat 04:46:00 AM -12.4951 -57.9737 137° Southeast  Level Estimated
Sat 04:47:00 AM -12.5904 -57.8814 137° Southeast  Level Estimated
Sat 04:48:00 AM -12.6856 -57.7891 137° Southeast  Level Estimated
Sat 04:49:00 AM -12.7810 -57.6966 137° Southeast  Level Estimated
Sat 04:50:00 AM -12.8764 -57.6040 137° Southeast  Level Estimated
Sat 04:51:00 AM -12.9717 -57.5113 137° Southeast  Level Estimated
Sat 04:52:00 AM -13.0670 -57.4186 137° Southeast  Level Estimated
Sat 04:53:00 AM -13.1622 -57.3258 137° Southeast  Level Estimated
Sat 04:54:00 AM -13.2574 -57.2329 136° Southeast  Level Estimated
Sat 04:55:00 AM -13.3526 -57.1399 136° Southeast  Level Estimated
Sat 04:56:00 AM -13.4478 -57.0469 136° Southeast  Level Estimated
Sat 04:57:00 AM -13.5429 -56.9538 136° Southeast  Level Estimated
Sat 04:58:00 AM -13.6379 -56.8606 136° Southeast  Level Estimated
Sat 04:59:00 AM -13.7330 -56.7673 136° Southeast  Level Estimated
Sat 05:00:00 AM -13.8282 -56.6738 136° Southeast  Level Estimated
Sat 05:01:00 AM -13.9233 -56.5803 136° Southeast  Level Estimated
Sat 05:02:00 AM -14.0184 -56.4866 136° Southeast  Level Estimated
Sat 05:03:00 AM -14.1135 -56.3929 136° Southeast  Level Estimated
Sat 05:04:00 AM -14.2085 -56.2991 136° Southeast  Level Estimated
Sat 05:05:00 AM -14.3035 -56.2052 136° Southeast  Level Estimated
Sat 05:06:00 AM -14.3985 -56.1112 136° Southeast  Level Estimated
Sat 05:07:00 AM -14.4934 -56.0172 136° Southeast  Level Estimated
Sat 05:08:00 AM -14.5883 -55.9230 136° Southeast  Level Estimated
Sat 05:09:00 AM -14.6831 -55.8288 136° Southeast  Level Estimated
Sat 05:10:00 AM -14.7780 -55.7345 136° Southeast  Level Estimated
Sat 05:11:00 AM -14.8727 -55.6402 136° Southeast  Level Estimated
Sat 05:12:00 AM -14.9675 -55.5457 136° Southeast  Level Estimated
Sat 05:13:00 AM -15.0621 -55.4512 136° Southeast  Level Estimated
Sat 05:14:00 AM -15.1568 -55.3565 136° Southeast  Level Estimated
Sat 05:15:00 AM -15.2514 -55.2618 136° Southeast  Level Estimated
Sat 05:16:00 AM -15.3460 -55.1670 136° Southeast  Level Estimated
Sat 05:17:00 AM -15.4405 -55.0722 136° Southeast  Level Estimated
Sat 05:18:00 AM -15.5350 -54.9772 136° Southeast  Level Estimated
Sat 05:19:00 AM -15.6295 -54.8822 136° Southeast  Level Estimated
Sat 05:20:00 AM -15.7239 -54.7870 136° Southeast  Level Estimated
Sat 05:21:00 AM -15.8183 -54.6918 136° Southeast  Level Estimated
Sat 05:22:00 AM -15.9126 -54.5965 136° Southeast  Level Estimated
Sat 05:23:00 AM -16.0069 -54.5011 136° Southeast  Level Estimated
Sat 05:24:00 AM -16.1011 -54.4056 136° Southeast  Level Estimated
Sat 05:25:00 AM -16.1952 -54.3101 136° Southeast  Level Estimated
Sat 05:26:00 AM -16.2892 -54.2146 136° Southeast  Level Estimated
Sat 05:27:00 AM -16.3831 -54.1190 136° Southeast  Level Estimated
Sat 05:28:00 AM -16.4770 -54.0233 136° Southeast  Level Estimated
Sat 05:29:00 AM -16.5709 -53.9276 136° Southeast  Level Estimated
Sat 05:30:00 AM -16.6647 -53.8317 136° Southeast  Level Estimated
Sat 05:31:00 AM -16.7585 -53.7357 136° Southeast  Level Estimated
Sat 05:32:00 AM -16.8522 -53.6396 136° Southeast  Level Estimated
Sat 05:33:00 AM -16.9459 -53.5435 136° Southeast  Level Estimated
Sat 05:34:00 AM -17.0396 -53.4472 136° Southeast  Level Estimated
Sat 05:35:00 AM -17.1332 -53.3508 135° Southeast  Level Estimated
Sat 05:36:00 AM -17.2267 -53.2544 135° Southeast  Level Estimated
Sat 05:37:00 AM -17.3202 -53.1578 135° Southeast  Level Estimated
Sat 05:38:00 AM -17.4137 -53.0612 135° Southeast  Level Estimated
Sat 05:39:00 AM -17.5071 -52.9645 135° Southeast  Level Estimated
Sat 05:40:00 AM -17.6005 -52.8676 135° Southeast  Level Estimated
Sat 05:41:00 AM -17.6938 -52.7706 135° Southeast  Level Estimated
Sat 05:42:00 AM -17.7871 -52.6736 135° Southeast  Level Estimated
Sat 05:43:00 AM -17.8803 -52.5765 135° Southeast  Level Estimated
Sat 05:43:33 AM -18.8030 -50.8850 135° Southeast 525 604 39,000  Level FlightAware ADS-B
Sat 05:44:00 AM -17.9734 -52.4792 135° Southeast  Level Estimated
Sat 05:44:18 AM -18.8690 -50.8130 134° Southeast 525 604 39,000  Level FlightAware ADS-B
Sat 05:44:57 AM -18.9470 -50.7290 134° Southeast 526 605 39,000  Level FlightAware ADS-B
Sat 05:45:40 AM -19.0180 -50.6510 134° Southeast 527 606 39,000  Level FlightAware ADS-B
Sat 05:46:22 AM -19.0890 -50.5730 134° Southeast 527 606 39,000  Level FlightAware ADS-B
Sat 05:47:02 AM -19.1580 -50.4980 134° Southeast 528 608 39,000  Level FlightAware ADS-B
Sat 05:47:47 AM -19.2340 -50.4150 134° Southeast 528 608 39,000  Level FlightAware ADS-B
Sat 05:48:28 AM -19.3040 -50.3380 134° Southeast 529 609 39,000  Level FlightAware ADS-B
Sat 05:48:57 AM -19.3530 -50.2850 134° Southeast 529 609 39,000  Level FlightAware ADS-B
Sat 05:49:36 AM -19.4200 -50.2110 134° Southeast 527 606 39,000  Level FlightAware ADS-B
Sat 05:50:47 AM -19.4850 -50.1390 134° Southeast 528 608 39,000  Level FlightAware ADS-B
Sat 05:51:30 AM -19.6130 -49.9980 134° Southeast 528 608 39,000  Level FlightAware ADS-B
Sat 05:52:04 AM -19.6710 -49.9350 134° Southeast 528 608 39,000  Level FlightAware ADS-B
Sat 05:52:45 AM -19.7400 -49.8600 134° Southeast 528 608 39,000  Level FlightAware ADS-B
Sat 05:53:22 AM -19.8030 -49.7900 134° Southeast 528 608 39,000  Level FlightAware ADS-B
Sat 05:54:08 AM -19.8820 -49.7050 135° Southeast 531 611 39,000  Level FlightAware ADS-B
Sat 05:54:48 AM -19.9510 -49.6290 134° Southeast 531 611 39,000  Level FlightAware ADS-B
Sat 05:55:46 AM -20.0500 -49.5200 134° Southeast 533 613 39,000  Level FlightAware ADS-B
Sat 05:56:26 AM -20.1180 -49.4450 134° Southeast 533 613 39,000  Level FlightAware ADS-B
Sat 05:57:11 AM -20.1950 -49.3610 134° Southeast 535 616 39,000  Level FlightAware ADS-B
Sat 05:57:50 AM -20.2630 -49.2860 134° Southeast 536 617 39,000  Level FlightAware ADS-B
Sat 05:58:35 AM -20.3390 -49.2010 134° Southeast 537 618 39,000  Level FlightAware ADS-B
Sat 05:59:16 AM -20.4080 -49.1250 134° Southeast 537 618 39,000  Level FlightAware ADS-B
Sat 05:59:56 AM -20.4810 -49.0440 134° Southeast 538 619 39,000  Level FlightAware ADS-B
Sat 06:00:34 AM -20.5460 -48.9720 134° Southeast 538 619 39,000  Level FlightAware ADS-B
Sat 06:01:22 AM -20.6290 -48.8800 134° Southeast 538 619 39,000  Level FlightAware ADS-B
Sat 06:02:02 AM -20.6980 -48.8030 134° Southeast 538 619 39,000  Level FlightAware ADS-B
Sat 06:02:47 AM -20.7740 -48.7180 134° Southeast 539 620 39,000  Level FlightAware ADS-B
Sat 06:03:28 AM -20.8460 -48.6370 134° Southeast 540 621 39,000  Level FlightAware ADS-B
Sat 06:04:08 AM -20.9150 -48.5590 133° Southeast 541 623 39,000  Level FlightAware ADS-B
Sat 06:04:50 AM -20.9870 -48.4790 134° Southeast 541 623 39,000  Level FlightAware ADS-B
Sat 06:05:28 AM -21.0520 -48.4050 133° Southeast 541 623 39,000  Level FlightAware ADS-B
Sat 06:06:16 AM -21.1310 -48.3160 134° Southeast 541 623 39,000  Level FlightAware ADS-B
Sat 06:07:00 AM -21.2110 -48.2260 134° Southeast 538 619 39,000  Level FlightAware ADS-B
Sat 06:07:40 AM -21.2800 -48.1480 134° Southeast 528 608 39,000  Level FlightAware ADS-B
Sat 06:08:20 AM -21.3450 -48.0740 133° Southeast 525 604 39,000  Level FlightAware ADS-B
Sat 06:09:04 AM -21.4190 -47.9900 133° Southeast 524 603 39,000  Level FlightAware ADS-B
Sat 06:09:42 AM -21.4830 -47.9180 134° Southeast 522 601 39,000  Level FlightAware ADS-B
Sat 06:10:28 AM -21.5590 -47.8320 134° Southeast 522 601 39,000 -53 Level FlightAware ADS-B
Sat 06:11:36 AM -21.6720 -47.7030 133° Southeast 519 597 38,900 -1,081 Descending FlightAware ADS-B
Sat 06:12:19 AM -21.7420 -47.6230 133° Southeast 528 608 37,000 -2,651 Descending FlightAware ADS-B
Sat 06:13:02 AM -21.8160 -47.5380 133° Southeast 532 612 35,100 -2,530 Descending FlightAware ADS-B
Sat 06:13:42 AM -21.8830 -47.4620 134° Southeast 529 609 33,500 -2,143 Descending FlightAware ADS-B
Sat 06:14:26 AM -21.9560 -47.3790 133° Southeast 513 590 32,100 -2,286 Descending FlightAware ADS-B
Sat 06:15:06 AM -22.0350 -47.3240 147° Southeast 496 571 30,300 -2,707 Descending FlightAware ADS-B
Sat 06:15:48 AM -22.1260 -47.3050 169° South 481 554 28,400 -2,286 Descending FlightAware ADS-B
Sat 06:16:30 AM -22.2140 -47.3260 192° South 452 520 27,100 -1,518 Descending FlightAware ADS-B
Sat 06:17:11 AM -22.2810 -47.3760 215° Southwest 422 486 26,300 -977 Descending FlightAware ADS-B
Sat 06:17:56 AM -22.3510 -47.4300 216° Southwest 397 457 25,700 -870 Descending FlightAware ADS-B
Sat 06:18:20 AM -22.3930 -47.4410 194° South 392 451 25,300 -778 Descending FlightAware ADS-B
Sat 06:18:50 AM -22.4430 -47.4280 166° South 384 442 25,000 -391 Descending FlightAware ADS-B
Sat 06:19:06 AM -22.4650 -47.4100 143° Southeast 382 440 25,000  Level FlightAware ADS-B
Sat 06:19:34 AM -22.4930 -47.3620 122° Southeast 386 444 25,000  Level FlightAware ADS-B
Sat 06:20:14 AM -22.5160 -47.2880 109° East 387 445 25,000 -805 Level FlightAware ADS-B
Sat 06:20:56 AM -22.5400 -47.2130 109° East 385 443 23,900 -1,583 Descending FlightAware ADS-B
Sat 06:21:26 AM -22.5690 -47.1650 123° Southeast 371 427 23,100 -1,650 Descending FlightAware ADS-B
Sat 06:22:16 AM -22.6440 -47.1210 152° Southeast 364 419 21,700 -1,714 Descending FlightAware ADS-B
Sat 06:23:04 AM -22.7150 -47.0850 155° Southeast 355 409 20,300 -2,386 Descending FlightAware ADS-B
Sat 06:23:44 AM -22.7740 -47.0540 154° Southeast 344 396 18,200 -3,000 Descending FlightAware ADS-B
Sat 06:24:24 AM -22.8300 -47.0240 154° Southeast 329 379 16,300 -2,930 Descending FlightAware ADS-B
Sat 06:25:10 AM -22.8910 -46.9910 154° Southeast 320 368 14,000 -2,757 Descending FlightAware ADS-B
Sat 06:26:15 AM -22.9750 -46.9460 154° Southeast 310 357 11,200 -1,872 Descending FlightAware ADS-B
Sat 06:26:59 AM -23.0320 -46.9150 153° Southeast 292 336 10,600 -628 Descending FlightAware ADS-B
Sat 06:27:41 AM -23.0810 -46.8890 154° Southeast 285 328 10,300 -519 Descending FlightAware ADS-B
Sat 06:28:20 AM -23.1300 -46.8660 157° South 280 322 9,900 -870 Descending FlightAware ADS-B
Sat 06:28:50 AM -23.1670 -46.8500 158° South 276 318 9,300 -1,220 Descending FlightAware ADS-B
Sat 06:29:19 AM -23.2040 -46.8340 158° South 274 315 8,700 -1,286 Descending FlightAware ADS-B
Sat 06:29:46 AM -23.2340 -46.8210 158° South 280 322 8,100 -1,174 Descending FlightAware ADS-B
Sat 06:30:05 AM -23.2590 -46.8110 160° South 277 319 7,800 -700 Descending FlightAware ADS-B
Sat 06:30:46 AM -23.3070 -46.7900 158° South 254 292 7,400 -435 Descending FlightAware ADS-B
Sat 06:31:14 AM -23.3360 -46.7780 159° South 236 272 7,300 -536 Descending FlightAware ADS-B
Sat 06:31:42 AM -23.3640 -46.7660 159° South 225 259 6,900 -857 Descending FlightAware ADS-B
Sat 06:32:10 AM -23.3880 -46.7480 145° Southeast 224 258 6,500 -964 Descending FlightAware ADS-B
Sat 06:32:38 AM -23.4100 -46.7280 140° Southeast 219 252 6,000 -1,000 Descending FlightAware ADS-B
Sat 06:33:04 AM -23.4300 -46.7090 139° Southeast 211 243 5,600 -792 Descending FlightAware ADS-B
Sat 06:33:31 AM -23.4480 -46.6900 136° Southeast 200 230 5,300 -750 Descending FlightAware ADS-B
Sat 06:34:00 AM -23.4600 -46.6640 117° Southeast 181 208 4,900 -632 Descending FlightAware ADS-B
Sat 06:34:28 AM -23.4690 -46.6430 115° Southeast 162 186 4,700 -453 Descending FlightAware ADS-B
Sat 06:34:53 AM -23.4750 -46.6250 110° East 159 183 4,500 -346 Descending FlightAware ADS-B
Sat 06:35:20 AM -23.4700 -46.6030 76° East 161 185 4,400 -511 Descending FlightAware ADS-B
Sat 06:35:40 AM -23.4660 -46.5870 75° East 165 190 4,100 -875 Descending FlightAware ADS-B
Sat 06:36:08 AM -23.4600 -46.5650 73° East 157 181 3,700 -842 Descending FlightAware ADS-B
Sat 06:36:37 AM -23.4540 -46.5450 72° East 147 169 3,300 -778 Descending FlightAware ADS-B
Sat 06:37:02 AM -23.4490 -46.5260 74° East 145 167 3,000 -679 Descending FlightAware ADS-B
Sat 06:37:30 AM -23.4440 -46.5080 73° East 145 167 2,700 -738 Descending FlightAware ADS-B
Sat 06:38:07 AM -23.4370 -46.4820 74° East 143 165 2,200 -811 Descending FlightAware ADS-B
Sat 06:38:23 AM -23.4350 -46.4730 76° East 105 121 -8,250 Descending FlightAware ADS-B

Login

Don't have an account? Register now (free) for customized features, flight alerts, and more!